Heathman, Mississippi
Current Conditions -  °F | °C
As of 9:53 AM on Sunday 25 Jan 2015 (Local Time) from KGLH Reporting Station
Clear Clear  
Wind Chill: 50°   Ceiling: Unl
Heat Index: 50°   Visibility: 10mi
Dew Point: 38°   Wind: 14mph
Humidity: 63%   Direction: 230°SW
Pressure: 29.81"   Gusts: NA
Location:  33.4825°N, 90.6856°W
Report Text: KGLH 251553Z AUTO 23012KT 10SM CLR 10/03 A2981 RMK AO2 SLP104 T01000033
Loading
Personal Weather Stations






























Interactive Weather Map New forecast layout! Learn more

10-Day Weather Forecast

Advertisements
Track Severe Weather on mobile